createdAt,value
2018-05-07T00:00:18.246Z,101596.12
2018-05-07T00:02:48.532Z,101618.78
2018-05-07T00:05:18.758Z,101615.73
2018-05-07T00:07:49.175Z,101619.53
2018-05-07T00:10:22.057Z,101611.62
2018-05-07T00:12:53.707Z,101613.86
2018-05-07T00:15:25.498Z,101615.02
2018-05-07T00:17:57.008Z,101608.53
2018-05-07T00:20:27.261Z,101611.95
2018-05-07T00:23:01.029Z,101608.84
2018-05-07T00:25:33.471Z,101601.95
2018-05-07T00:28:03.902Z,101601.89
2018-05-07T00:30:35.219Z,101607.32
2018-05-07T00:33:05.425Z,101603.23
2018-05-07T00:35:35.708Z,101602.73
2018-05-07T00:38:07.824Z,101598.27
2018-05-07T00:40:38.398Z,101596.75
2018-05-07T00:43:08.953Z,101597.79
2018-05-07T00:45:40.977Z,101596.42
2018-05-07T00:48:11.348Z,101595.08
2018-05-07T00:50:42.520Z,101596.34
2018-05-07T00:53:13.304Z,101593.83
2018-05-07T00:55:44.053Z,101593.84
2018-05-07T00:58:14.933Z,101591.97
2018-05-07T01:00:46.104Z,101595.38
2018-05-07T01:03:16.591Z,101598.30
2018-05-07T01:05:47.610Z,101605.16
2018-05-07T01:08:18.762Z,101603.08
2018-05-07T01:10:49.243Z,101602.31
2018-05-07T01:13:19.611Z,101601.05
2018-05-07T01:15:50.363Z,101607.56
2018-05-07T01:18:21.964Z,101605.80
2018-05-07T01:20:53.583Z,101607.91
2018-05-07T01:23:24.690Z,101613.06
2018-05-07T01:26:00.454Z,101606.41
2018-05-07T01:28:31.518Z,101604.81
2018-05-07T01:31:02.443Z,101607.60
2018-05-07T01:33:33.361Z,101608.81
2018-05-07T01:36:03.631Z,101612.36
2018-05-07T01:38:33.864Z,101612.86
2018-05-07T01:41:04.347Z,101607.48
2018-05-07T01:43:34.900Z,101604.17
2018-05-07T01:46:06.314Z,101608.61
2018-05-07T01:48:37.892Z,101612.00
2018-05-07T01:51:08.360Z,101613.00
2018-05-07T01:53:39.510Z,101607.34
2018-05-07T01:56:10.089Z,101597.62
2018-05-07T01:58:40.369Z,101603.31
2018-05-07T02:01:11.439Z,101594.73
2018-05-07T02:03:41.765Z,101595.23
2018-05-07T02:06:12.332Z,101602.90
2018-05-07T02:08:42.918Z,101598.44
2018-05-07T02:11:13.248Z,101591.96
2018-05-07T02:13:44.389Z,101593.55
2018-05-07T02:16:18.353Z,101588.64
2018-05-07T02:18:48.900Z,101587.44
2018-05-07T02:21:20.500Z,101594.25
2018-05-07T02:23:52.038Z,101591.83
2018-05-07T02:26:22.607Z,101593.77
2018-05-07T02:28:53.355Z,101587.71
2018-05-07T02:31:36.209Z,101591.64
2018-05-07T02:34:08.259Z,101583.27
2018-05-07T02:36:39.346Z,101589.53
2018-05-07T02:39:10.383Z,101589.34
2018-05-07T02:41:40.727Z,101595.66
2018-05-07T02:44:11.047Z,101587.83
2018-05-07T02:46:41.686Z,101592.11
2018-05-07T02:49:12.158Z,101592.72
2018-05-07T02:51:42.608Z,101588.11
2018-05-07T02:54:12.961Z,101585.64
2018-05-07T02:56:44.008Z,101582.92
2018-05-07T02:59:14.590Z,101582.37
2018-05-07T03:01:45.901Z,101578.36
2018-05-07T03:04:16.162Z,101576.62
2018-05-07T03:06:47.982Z,101580.41
2018-05-07T03:09:18.911Z,101578.88
2018-05-07T03:11:49.420Z,101572.98
2018-05-07T03:14:20.232Z,101570.48
2018-05-07T03:16:50.764Z,101572.92
2018-05-07T03:19:21.457Z,101555.16
2018-05-07T03:21:52.751Z,101564.48
2018-05-07T03:24:24.395Z,101563.33
2018-05-07T03:26:55.579Z,101566.81
2018-05-07T03:29:28.445Z,101559.07
2018-05-07T03:31:59.240Z,101567.42
2018-05-07T03:34:30.176Z,101562.59
2018-05-07T03:37:00.566Z,101556.80
2018-05-07T03:39:30.749Z,101566.94
2018-05-07T03:42:01.543Z,101562.69
2018-05-07T03:44:32.487Z,101565.56
2018-05-07T03:47:03.057Z,101564.59
2018-05-07T03:49:34.254Z,101563.05
2018-05-07T03:52:04.587Z,101565.40
2018-05-07T03:54:35.796Z,101554.55
2018-05-07T03:57:07.688Z,101548.20
2018-05-07T03:59:38.357Z,101546.26
2018-05-07T04:02:09.098Z,101535.91
2018-05-07T04:04:39.482Z,101547.48
2018-05-07T04:07:10.609Z,101538.65
2018-05-07T04:09:41.122Z,101549.00
2018-05-07T04:12:13.940Z,101541.02
2018-05-07T04:14:44.134Z,101542.25
2018-05-07T04:17:32.577Z,101540.41
2018-05-07T04:22:16.826Z,101541.72
2018-05-07T04:24:48.135Z,101543.47
2018-05-07T04:27:19.907Z,101542.25
2018-05-07T04:29:50.305Z,101540.72
2018-05-07T04:32:21.927Z,101543.13
2018-05-07T04:34:52.287Z,101544.52
2018-05-07T04:37:24.494Z,101546.33
2018-05-07T04:39:54.961Z,101544.48
2018-05-07T04:42:26.041Z,101549.98
2018-05-07T04:44:56.199Z,101550.43
2018-05-07T04:47:26.761Z,101551.13
2018-05-07T04:49:57.287Z,101551.88
2018-05-07T04:52:36.268Z,101555.44
2018-05-07T04:55:06.952Z,101555.69
2018-05-07T04:57:37.887Z,101557.84
2018-05-07T05:00:09.591Z,101554.44
2018-05-07T05:02:39.995Z,101552.16
2018-05-07T05:05:10.179Z,101553.13
2018-05-07T05:07:40.552Z,101552.08
2018-05-07T05:10:10.887Z,101555.66
2018-05-07T05:12:42.150Z,101554.44
2018-05-07T05:15:17.931Z,101555.72
2018-05-07T05:17:51.993Z,101552.80
2018-05-07T05:20:23.795Z,101554.04
2018-05-07T05:22:54.344Z,101559.08
2018-05-07T05:25:25.100Z,101566.85
2018-05-07T05:27:56.090Z,101553.35
2018-05-07T05:33:01.427Z,101562.00
2018-05-07T05:35:32.078Z,101565.02
2018-05-07T05:38:03.882Z,101561.34
2018-05-07T05:40:37.513Z,101555.80
2018-05-07T05:43:07.632Z,101558.56
2018-05-07T05:45:38.965Z,101551.95
2018-05-07T05:48:11.638Z,101548.14
2018-05-07T05:50:47.400Z,101546.22
2018-05-07T05:53:20.438Z,101551.63
2018-05-07T05:55:50.866Z,101555.41
2018-05-07T05:58:21.140Z,101554.15
2018-05-07T06:01:02.277Z,101554.14
2018-05-07T06:03:32.527Z,101547.30
2018-05-07T06:06:02.753Z,101567.42
2018-05-07T06:08:33.662Z,101549.95
2018-05-07T06:11:04.039Z,101547.25
2018-05-07T06:13:34.427Z,101550.93
2018-05-07T06:16:05.115Z,101553.16
2018-05-07T06:18:59.105Z,101553.89
2018-05-07T06:21:39.317Z,101556.25
2018-05-07T06:24:10.356Z,101558.50
2018-05-07T06:26:41.147Z,101556.49
2018-05-07T06:29:11.716Z,101550.03
2018-05-07T06:31:55.947Z,101558.16
2018-05-07T06:34:26.335Z,101554.69
2018-05-07T06:36:57.922Z,101561.38
2018-05-07T06:39:29.765Z,101550.49
2018-05-07T06:42:00.184Z,101559.66
2018-05-07T06:44:34.932Z,101554.80
2018-05-07T06:47:05.405Z,101548.95
2018-05-07T06:49:36.000Z,101558.56
2018-05-07T06:52:06.308Z,101561.80
2018-05-07T06:54:39.598Z,101564.12
2018-05-07T06:57:11.356Z,101561.35
2018-05-07T06:59:43.465Z,101567.55
2018-05-07T07:02:15.125Z,101538.59
2018-05-07T07:04:59.863Z,101563.06
2018-05-07T07:07:34.831Z,101559.40
2018-05-07T07:10:06.065Z,101554.95
2018-05-07T07:12:36.417Z,101553.62
2018-05-07T07:15:09.015Z,101551.94
2018-05-07T07:17:43.555Z,101554.41
2018-05-07T07:20:25.933Z,101536.70
2018-05-07T07:22:57.185Z,101552.98
2018-05-07T07:25:31.881Z,101555.44
2018-05-07T07:28:02.617Z,101551.66
2018-05-07T07:30:33.467Z,101547.17
2018-05-07T07:33:03.654Z,101550.55
2018-05-07T07:38:12.822Z,101552.78
2018-05-07T07:40:43.043Z,101553.61
2018-05-07T07:43:17.066Z,101546.67
2018-05-07T07:45:48.988Z,101533.97
2018-05-07T07:48:19.843Z,101544.03
2018-05-07T07:50:50.253Z,101539.89
2018-05-07T07:53:20.900Z,101525.50
2018-05-07T07:55:51.191Z,101555.03
2018-05-07T07:58:24.984Z,101535.34
2018-05-07T08:00:57.832Z,101544.28
2018-05-07T08:03:29.356Z,101548.09
2018-05-07T08:05:59.791Z,101545.94
2018-05-07T08:08:30.653Z,101544.63
2018-05-07T08:11:01.730Z,101539.98
2018-05-07T08:13:33.433Z,101541.71
2018-05-07T08:16:07.495Z,101543.53
2018-05-07T08:18:38.371Z,101541.31
2018-05-07T08:21:08.646Z,101542.13
2018-05-07T08:23:44.035Z,101543.55
2018-05-07T08:26:19.927Z,101532.15
2018-05-07T08:28:50.204Z,101535.31
2018-05-07T08:31:21.282Z,101533.25
2018-05-07T08:33:52.437Z,101528.33
2018-05-07T08:36:22.849Z,101529.84
2018-05-07T08:38:53.915Z,101527.58
2018-05-07T08:41:24.842Z,101520.66
2018-05-07T08:43:55.236Z,101522.63
2018-05-07T08:46:25.498Z,101529.38
2018-05-07T08:48:55.626Z,101520.92
2018-05-07T08:51:27.718Z,101512.26
2018-05-07T08:53:58.744Z,101514.87
2018-05-07T08:56:29.292Z,101518.89
2018-05-07T08:59:00.289Z,101515.92
2018-05-07T09:01:32.641Z,101508.20
2018-05-07T09:04:03.608Z,101506.23
2018-05-07T09:06:33.880Z,101502.95
2018-05-07T09:09:06.016Z,101503.42
2018-05-07T09:11:38.812Z,101494.83
2018-05-07T09:14:08.969Z,101488.24
2018-05-07T09:16:39.732Z,101496.50
2018-05-07T09:19:10.412Z,101491.70
2018-05-07T09:21:51.596Z,101484.75
2018-05-07T09:24:22.383Z,101479.66
2018-05-07T09:26:53.059Z,101478.15
2018-05-07T09:29:26.181Z,101477.02
2018-05-07T09:31:59.594Z,101477.45
2018-05-07T09:34:33.197Z,101468.80
2018-05-07T09:37:05.111Z,101476.80
2018-05-07T09:39:35.603Z,101469.93
2018-05-07T09:42:05.912Z,101461.67
2018-05-07T09:44:37.398Z,101469.42
2018-05-07T09:47:10.504Z,101471.39
2018-05-07T09:49:42.057Z,101465.97
2018-05-07T09:52:12.191Z,101465.73
2018-05-07T09:54:43.688Z,101456.69
2018-05-07T09:57:20.572Z,101437.20
2018-05-07T09:59:50.863Z,101452.16
2018-05-07T10:02:25.890Z,101437.46
2018-05-07T10:05:01.132Z,101442.11
2018-05-07T10:07:32.351Z,101443.24
2018-05-07T10:10:09.910Z,101435.48
2018-05-07T10:12:54.756Z,101438.81
2018-05-07T10:15:25.106Z,101432.88
2018-05-07T10:17:57.533Z,101421.20
2018-05-07T10:20:32.188Z,101421.63
2018-05-07T10:23:04.540Z,101425.28
2018-05-07T10:25:35.508Z,101422.74
2018-05-07T10:28:06.172Z,101422.88
2018-05-07T10:30:37.694Z,101416.37
2018-05-07T10:33:08.862Z,101417.50
2018-05-07T10:35:42.990Z,101408.29
2018-05-07T10:38:13.349Z,101383.56
2018-05-07T10:40:57.226Z,101410.70
2018-05-07T10:43:29.978Z,101413.54
2018-05-07T10:46:03.651Z,101404.23
2018-05-07T10:48:34.954Z,101409.98
2018-05-07T10:51:08.077Z,101404.53
2018-05-07T10:53:55.097Z,101402.00
2018-05-07T10:56:27.465Z,101394.41
2018-05-07T10:58:57.717Z,101391.62
2018-05-07T11:01:28.918Z,101388.34
2018-05-07T11:04:00.378Z,101378.52
2018-05-07T11:06:32.132Z,101373.74
2018-05-07T11:09:03.433Z,101378.49
2018-05-07T11:11:34.179Z,101377.20
2018-05-07T11:14:05.907Z,101385.53
2018-05-07T11:16:36.946Z,101378.76
2018-05-07T11:19:09.298Z,101365.56
2018-05-07T11:21:40.450Z,101374.61
2018-05-07T11:24:16.113Z,101365.19
2018-05-07T11:26:47.555Z,101368.18
2018-05-07T11:29:18.381Z,101367.48
2018-05-07T11:31:49.187Z,101362.77
2018-05-07T11:34:19.480Z,101358.64
2018-05-07T11:36:52.119Z,101361.14
2018-05-07T11:39:23.276Z,101365.17
2018-05-07T11:41:53.705Z,101366.27
2018-05-07T11:44:25.783Z,101359.91
2018-05-07T11:46:57.781Z,101354.13
2018-05-07T11:49:48.650Z,101348.27
2018-05-07T11:52:19.562Z,101346.76
2018-05-07T11:54:52.271Z,101343.33
2018-05-07T11:57:24.255Z,101341.94
2018-05-07T11:59:58.182Z,101333.77
2018-05-07T12:02:30.703Z,101337.39
2018-05-07T12:05:01.134Z,101333.16
2018-05-07T12:07:31.857Z,101331.06
2018-05-07T12:10:04.250Z,101328.44
2018-05-07T12:12:35.256Z,101338.64
2018-05-07T12:15:14.516Z,101327.31
2018-05-07T12:17:48.205Z,101327.86
2018-05-07T12:20:19.860Z,101323.47
2018-05-07T12:22:53.874Z,101322.39
2018-05-07T12:25:24.789Z,101310.96
2018-05-07T12:28:01.385Z,101310.30
2018-05-07T12:30:31.890Z,101314.73
2018-05-07T12:33:02.451Z,101303.47
2018-05-07T12:35:33.229Z,101308.45
2018-05-07T12:38:03.772Z,101301.64
2018-05-07T12:40:45.409Z,101299.58
2018-05-07T12:43:17.032Z,101291.00
2018-05-07T12:45:48.399Z,101294.95
2018-05-07T12:48:23.425Z,101288.36
2018-05-07T12:50:55.494Z,101277.92
2018-05-07T12:53:31.121Z,101283.35
2018-05-07T12:56:03.161Z,101277.38
2018-05-07T12:58:33.909Z,101274.41
2018-05-07T13:01:07.690Z,101273.52
2018-05-07T13:03:38.321Z,101274.55
2018-05-07T13:06:11.411Z,101253.77
2018-05-07T13:08:44.987Z,101255.91
2018-05-07T13:11:15.849Z,101262.52
2018-05-07T13:13:47.465Z,101264.68
2018-05-07T13:16:21.376Z,101260.03
2018-05-07T13:18:52.596Z,101252.64
2018-05-07T13:21:24.573Z,101241.55
2018-05-07T13:23:55.134Z,101239.27
2018-05-07T13:26:25.509Z,101243.45
2018-05-07T13:28:57.192Z,101240.19
2018-05-07T13:31:28.640Z,101204.98
2018-05-07T13:34:02.163Z,101228.30
2018-05-07T13:36:36.376Z,101231.32
2018-05-07T13:39:08.448Z,101220.91
2018-05-07T13:41:39.970Z,101224.64
2018-05-07T13:44:11.968Z,101214.05
2018-05-07T13:46:42.321Z,101210.85
2018-05-07T13:49:13.285Z,101206.56
2018-05-07T13:51:45.216Z,101197.50
2018-05-07T13:54:15.676Z,101189.23
2018-05-07T13:59:36.015Z,101180.44
2018-05-07T14:02:09.236Z,101181.14
2018-05-07T14:04:41.679Z,101165.45
2018-05-07T14:07:27.252Z,101172.98
2018-05-07T14:10:01.006Z,101160.74
2018-05-07T14:12:32.754Z,101165.08
2018-05-07T14:15:08.785Z,101168.78
2018-05-07T14:17:39.647Z,101164.91
2018-05-07T14:20:10.885Z,101159.48
2018-05-07T14:22:43.834Z,101164.83
2018-05-07T14:25:14.248Z,101159.08
2018-05-07T14:27:46.851Z,101154.03
2018-05-07T14:30:17.527Z,101148.72
2018-05-07T14:32:48.280Z,101142.43
2018-05-07T14:35:19.203Z,101146.26
2018-05-07T14:37:50.424Z,101136.31
2018-05-07T14:40:22.511Z,101133.48
2018-05-07T14:42:56.152Z,101134.72
2018-05-07T14:45:32.195Z,101138.47
2018-05-07T14:48:03.639Z,101127.34
2018-05-07T14:50:34.679Z,101132.45
2018-05-07T14:53:06.179Z,101128.69
2018-05-07T14:55:37.040Z,101124.80
2018-05-07T14:58:09.134Z,101117.80
2018-05-07T15:00:49.466Z,101116.85
2018-05-07T15:03:20.081Z,101109.96
2018-05-07T15:05:53.041Z,101119.16
2018-05-07T15:08:23.597Z,101110.73
2018-05-07T15:10:58.816Z,101113.81
2018-05-07T15:13:34.765Z,101111.41
2018-05-07T15:16:16.158Z,101100.95
2018-05-07T15:18:46.951Z,101106.02
2018-05-07T15:21:18.888Z,101108.04
2018-05-07T15:23:50.092Z,101104.61
2018-05-07T15:26:21.270Z,101092.69
2018-05-07T15:28:54.987Z,101090.03
2018-05-07T15:31:26.262Z,101093.32
2018-05-07T15:34:00.199Z,101093.81
2018-05-07T15:36:37.437Z,101088.12
2018-05-07T15:39:10.094Z,101088.31
2018-05-07T15:41:41.183Z,101087.53
2018-05-07T15:44:13.353Z,101085.81
2018-05-07T15:46:45.170Z,101083.72
2018-05-07T15:49:21.304Z,101083.96
2018-05-07T15:51:57.652Z,101081.47
2018-05-07T15:54:31.859Z,101075.01
2018-05-07T15:57:02.456Z,101076.12
2018-05-07T15:59:39.225Z,101074.37
2018-05-07T16:02:13.832Z,101080.09
2018-05-07T16:07:38.628Z,101072.52
2018-05-07T16:10:10.173Z,101067.31
2018-05-07T16:12:41.405Z,101069.79
2018-05-07T16:15:16.107Z,101069.72
2018-05-07T16:17:51.213Z,101064.84
2018-05-07T16:20:23.095Z,101064.25
2018-05-07T16:22:55.389Z,101066.62
2018-05-07T16:25:25.837Z,101056.78
2018-05-07T16:27:57.769Z,101056.07
2018-05-07T16:30:29.607Z,101054.70
2018-05-07T16:33:02.896Z,101054.28
2018-05-07T16:35:34.816Z,101050.67
2018-05-07T16:38:06.269Z,101037.03
2018-05-07T16:40:37.097Z,101031.36
2018-05-07T16:43:08.943Z,101040.27
2018-05-07T16:45:40.378Z,101026.59
2018-05-07T16:48:11.151Z,101028.41
2018-05-07T16:50:42.890Z,101037.42
2018-05-07T16:53:17.229Z,101024.43
2018-05-07T16:55:48.530Z,101031.46
2018-05-07T16:58:19.110Z,101030.03
2018-05-07T17:00:52.080Z,101026.58
2018-05-07T17:03:22.985Z,101021.09
2018-05-07T17:05:57.783Z,101018.39
2018-05-07T17:08:29.444Z,101013.75
2018-05-07T17:11:00.404Z,101021.53
2018-05-07T17:13:31.835Z,101020.14
2018-05-07T17:16:04.994Z,101011.66
2018-05-07T17:18:37.487Z,101012.25
2018-05-07T17:21:08.990Z,101000.52
2018-05-07T17:23:41.211Z,101007.54
2018-05-07T17:26:14.597Z,101005.11
2018-05-07T17:28:46.150Z,101007.91
2018-05-07T17:31:19.318Z,101002.64
2018-05-07T17:33:50.734Z,101001.80
2018-05-07T17:36:24.164Z,101010.86
2018-05-07T17:38:57.185Z,101006.56
2018-05-07T17:41:28.056Z,101007.08
2018-05-07T17:44:04.011Z,101005.98
2018-05-07T17:46:53.468Z,101004.95
2018-05-07T17:49:30.968Z,101000.84
2018-05-07T17:52:17.973Z,101005.55
2018-05-07T17:54:57.183Z,101005.96
2018-05-07T17:57:32.307Z,100999.35
2018-05-07T18:00:14.943Z,101011.22
2018-05-07T18:02:49.953Z,101007.23
2018-05-07T18:08:44.791Z,101005.19
2018-05-07T18:11:22.736Z,101008.52
2018-05-07T18:14:00.048Z,101005.23
2018-05-07T18:16:45.658Z,101003.30
2018-05-07T18:19:18.871Z,101007.26
2018-05-07T18:21:54.578Z,101003.11
2018-05-07T18:24:32.568Z,100999.25
2018-05-07T18:27:18.549Z,101001.56
2018-05-07T18:32:49.882Z,100998.03
2018-05-07T18:35:24.643Z,100987.73
2018-05-07T18:38:02.193Z,100983.21
2018-05-07T18:40:47.078Z,100989.35
2018-05-07T18:43:29.369Z,100987.22
2018-05-07T18:46:16.908Z,100994.46
2018-05-07T18:48:57.994Z,100990.34
2018-05-07T18:51:51.037Z,100991.92
2018-05-07T18:54:27.631Z,100994.46
2018-05-07T18:57:21.297Z,100992.87
2018-05-07T19:00:07.693Z,100993.47
2018-05-07T19:02:45.921Z,100989.12
2018-05-07T19:08:15.574Z,100994.97
2018-05-07T19:10:48.365Z,100991.77
2018-05-07T19:13:32.770Z,100997.51
2018-05-07T19:16:17.537Z,100993.36
2018-05-07T19:18:56.177Z,101000.48
2018-05-07T19:21:31.228Z,100997.12
2018-05-07T19:26:49.216Z,101003.19
2018-05-07T19:29:24.728Z,101007.06
2018-05-07T19:31:58.681Z,101005.78
2018-05-07T19:34:31.872Z,100995.49
2018-05-07T19:37:07.518Z,101002.61
2018-05-07T19:39:43.803Z,100996.11
2018-05-07T19:42:16.270Z,101005.11
2018-05-07T19:44:50.469Z,101009.11
2018-05-07T19:47:24.711Z,101000.94
2018-05-07T19:49:58.893Z,101011.77
2018-05-07T19:52:36.062Z,101012.11
2018-05-07T19:55:10.863Z,101020.87
2018-05-07T19:57:58.770Z,101019.67
2018-05-07T20:00:36.719Z,101023.70
2018-05-07T20:03:25.273Z,101024.16
2018-05-07T20:05:59.935Z,101020.45
2018-05-07T20:08:33.113Z,101026.41
2018-05-07T20:11:10.799Z,101021.23
2018-05-07T20:13:50.287Z,101025.58
2018-05-07T20:16:26.796Z,101024.09
2018-05-07T20:19:02.449Z,101027.56
2018-05-07T20:21:36.963Z,101023.83
2018-05-07T20:24:10.447Z,101021.24
2018-05-07T20:26:43.070Z,101025.84
2018-05-07T20:29:26.222Z,101025.67
2018-05-07T20:32:17.357Z,101012.18
2018-05-07T20:34:50.940Z,101029.34
2018-05-07T20:37:23.329Z,101027.33
2018-05-07T20:39:55.472Z,101032.79
2018-05-07T20:42:36.943Z,101030.72
2018-05-07T20:45:15.783Z,101027.61
2018-05-07T20:48:02.705Z,101028.97
2018-05-07T20:50:44.652Z,101020.30
2018-05-07T20:53:18.337Z,101032.23
2018-05-07T20:55:53.920Z,101037.37
2018-05-07T20:58:27.404Z,101036.87
2018-05-07T21:03:53.749Z,101015.30
2018-05-07T21:06:25.772Z,101016.06
2018-05-07T21:09:02.983Z,101029.41
2018-05-07T21:11:48.055Z,101032.03
2018-05-07T21:14:21.725Z,101022.45
2018-05-07T21:16:54.119Z,101027.45
2018-05-07T21:19:25.843Z,101030.12
2018-05-07T21:21:56.594Z,101022.91
2018-05-07T21:24:28.926Z,101026.74
2018-05-07T21:26:59.707Z,101031.05
2018-05-07T21:29:30.819Z,101030.66
2018-05-07T21:34:56.442Z,101030.60
2018-05-07T21:37:28.148Z,101028.83
2018-05-07T21:40:02.740Z,101030.81
2018-05-07T21:42:33.492Z,101030.92
2018-05-07T21:45:15.812Z,101024.42
2018-05-07T21:47:48.794Z,101023.80
2018-05-07T21:50:20.581Z,101023.16
2018-05-07T21:52:55.934Z,101027.75
2018-05-07T21:55:27.313Z,101034.84
2018-05-07T21:58:02.364Z,101031.61
2018-05-07T22:00:33.272Z,101029.00
2018-05-07T22:03:03.581Z,101032.36
2018-05-07T22:05:33.907Z,101030.24
2018-05-07T22:08:04.605Z,101027.08
2018-05-07T22:10:35.691Z,101027.20
2018-05-07T22:13:06.286Z,101025.03
2018-05-07T22:15:37.062Z,101013.64
2018-05-07T22:18:07.907Z,101031.30
2018-05-07T22:20:38.975Z,101032.77
2018-05-07T22:23:11.473Z,100976.58
2018-05-07T22:25:42.355Z,101024.22
2018-05-07T22:28:14.374Z,101024.21
2018-05-07T22:30:44.765Z,101022.95
2018-05-07T22:33:15.430Z,101020.84
2018-05-07T22:35:49.520Z,101016.47
2018-05-07T22:38:20.043Z,101015.41
2018-05-07T22:40:50.742Z,101021.47
2018-05-07T22:43:20.949Z,101018.66
2018-05-07T22:45:52.553Z,101019.19
2018-05-07T22:48:25.093Z,101019.49
2018-05-07T22:50:55.488Z,101023.46
2018-05-07T22:53:28.125Z,101022.73
2018-05-07T22:55:59.120Z,101020.76
2018-05-07T22:58:30.061Z,101023.17
2018-05-07T23:01:01.100Z,101015.03
2018-05-07T23:03:32.857Z,101017.13
2018-05-07T23:06:03.574Z,101015.54
2018-05-07T23:08:34.142Z,101011.78
2018-05-07T23:11:04.699Z,101012.49
2018-05-07T23:13:36.570Z,101018.77
2018-05-07T23:16:09.211Z,101017.82
2018-05-07T23:18:39.540Z,101020.21
2018-05-07T23:21:10.083Z,101014.14
2018-05-07T23:23:40.477Z,101009.66
2018-05-07T23:26:11.122Z,101016.73
2018-05-07T23:28:41.297Z,101009.31
2018-05-07T23:31:11.872Z,101010.74
2018-05-07T23:33:43.177Z,101010.39
2018-05-07T23:36:14.247Z,101011.65
2018-05-07T23:38:46.884Z,101011.81
2018-05-07T23:41:18.215Z,101009.00
2018-05-07T23:43:48.548Z,101008.48
2018-05-07T23:46:19.004Z,101007.84
2018-05-07T23:48:49.696Z,100994.93
2018-05-07T23:51:19.909Z,100998.16
2018-05-07T23:53:50.252Z,100993.58
2018-05-07T23:56:21.775Z,100992.09
2018-05-07T23:58:52.566Z,100985.61
